sensor_id;sensor_type;location;lat;lon;timestamp;pressure;altitude;pressure_sealevel;temperature;humidity
63405;BME280;49541;57.840;12.306;2023-01-27T00:02:45;102144.38;;;0.40;76.92
63405;BME280;49541;57.840;12.306;2023-01-27T00:07:45;102141.88;;;0.34;76.41
63405;BME280;49541;57.840;12.306;2023-01-27T00:12:46;102145.59;;;0.67;74.42
63405;BME280;49541;57.840;12.306;2023-01-27T00:18:05;102135.84;;;0.72;72.00
63405;BME280;49541;57.840;12.306;2023-01-27T00:23:09;102142.91;;;0.27;71.90
63405;BME280;49541;57.840;12.306;2023-01-27T00:28:32;102139.72;;;0.11;72.62
63405;BME280;49541;57.840;12.306;2023-01-27T00:33:32;102121.75;;;0.34;72.12
63405;BME280;49541;57.840;12.306;2023-01-27T00:38:33;102124.44;;;-0.15;73.77
63405;BME280;49541;57.840;12.306;2023-01-27T00:43:33;102132.88;;;-0.49;74.61
63405;BME280;49541;57.840;12.306;2023-01-27T00:48:34;102128.84;;;-0.69;74.30
63405;BME280;49541;57.840;12.306;2023-01-27T00:53:34;102105.41;;;-0.76;74.00
63405;BME280;49541;57.840;12.306;2023-01-27T00:58:34;102117.53;;;-0.72;74.00
63405;BME280;49541;57.840;12.306;2023-01-27T01:03:35;102122.63;;;-0.63;73.27
63405;BME280;49541;57.840;12.306;2023-01-27T01:08:35;102128.53;;;-0.52;72.27
63405;BME280;49541;57.840;12.306;2023-01-27T01:13:36;102138.78;;;0.13;68.96
63405;BME280;49541;57.840;12.306;2023-01-27T01:18:36;102146.75;;;0.52;67.49
63405;BME280;49541;57.840;12.306;2023-01-27T01:23:38;102143.50;;;-0.07;69.88
63405;BME280;49541;57.840;12.306;2023-01-27T01:28:39;102150.59;;;-0.14;70.33
63405;BME280;49541;57.840;12.306;2023-01-27T01:33:39;102145.03;;;-0.45;70.70
63405;BME280;49541;57.840;12.306;2023-01-27T01:38:39;102136.75;;;-1.37;73.06
63405;BME280;49541;57.840;12.306;2023-01-27T01:43:40;102137.72;;;-1.46;74.43
63405;BME280;49541;57.840;12.306;2023-01-27T01:48:44;102137.94;;;-0.96;73.40
63405;BME280;49541;57.840;12.306;2023-01-27T01:54:01;102136.34;;;-0.49;71.65
63405;BME280;49541;57.840;12.306;2023-01-27T01:59:06;102139.00;;;-1.11;73.51
63405;BME280;49541;57.840;12.306;2023-01-27T02:04:10;102136.69;;;-1.34;73.66
63405;BME280;49541;57.840;12.306;2023-01-27T02:09:12;102136.50;;;-1.18;73.25
63405;BME280;49541;57.840;12.306;2023-01-27T02:14:12;102148.28;;;-1.55;75.44
63405;BME280;49541;57.840;12.306;2023-01-27T02:19:17;102157.78;;;-0.81;71.41
63405;BME280;49541;57.840;12.306;2023-01-27T02:24:20;102157.47;;;-1.21;72.20
63405;BME280;49541;57.840;12.306;2023-01-27T02:29:25;102165.13;;;-1.82;74.20
63405;BME280;49541;57.840;12.306;2023-01-27T02:34:27;102166.03;;;-1.88;74.80
63405;BME280;49541;57.840;12.306;2023-01-27T02:39:33;102167.91;;;-1.99;74.85
63405;BME280;49541;57.840;12.306;2023-01-27T02:44:35;102183.66;;;-2.08;74.24
63405;BME280;49541;57.840;12.306;2023-01-27T02:49:35;102183.78;;;-2.23;73.93
63405;BME280;49541;57.840;12.306;2023-01-27T02:54:35;102172.47;;;-1.37;70.90
63405;BME280;49541;57.840;12.306;2023-01-27T02:59:35;102177.28;;;-1.78;70.82
63405;BME280;49541;57.840;12.306;2023-01-27T03:04:36;102173.03;;;-1.90;72.28
63405;BME280;49541;57.840;12.306;2023-01-27T03:09:37;102169.13;;;-2.41;72.07
63405;BME280;49541;57.840;12.306;2023-01-27T03:14:37;102178.81;;;-2.59;73.85
63405;BME280;49541;57.840;12.306;2023-01-27T03:19:57;102171.72;;;-2.40;73.69
63405;BME280;49541;57.840;12.306;2023-01-27T03:24:57;102173.91;;;-1.92;71.43
63405;BME280;49541;57.840;12.306;2023-01-27T03:29:57;102172.38;;;-2.13;70.80
63405;BME280;49541;57.840;12.306;2023-01-27T03:34:57;102172.44;;;-2.22;71.24
63405;BME280;49541;57.840;12.306;2023-01-27T03:39:59;102171.72;;;-2.40;71.24
63405;BME280;49541;57.840;12.306;2023-01-27T03:45:18;102163.81;;;-2.29;71.66
63405;BME280;49541;57.840;12.306;2023-01-27T03:50:36;102169.00;;;-2.26;70.99
63405;BME280;49541;57.840;12.306;2023-01-27T03:55:37;102166.38;;;-2.26;69.69
63405;BME280;49541;57.840;12.306;2023-01-27T04:00:37;102169.41;;;-2.81;71.22
63405;BME280;49541;57.840;12.306;2023-01-27T04:05:38;102163.34;;;-2.86;71.89
63405;BME280;49541;57.840;12.306;2023-01-27T04:11:01;102167.56;;;-2.67;71.27
63405;BME280;49541;57.840;12.306;2023-01-27T04:16:19;102160.66;;;-2.74;70.40
63405;BME280;49541;57.840;12.306;2023-01-27T04:21:27;102159.09;;;-2.97;70.36
63405;BME280;49541;57.840;12.306;2023-01-27T04:26:28;102165.06;;;-2.82;70.02
63405;BME280;49541;57.840;12.306;2023-01-27T04:31:32;102159.84;;;-2.81;69.63
63405;BME280;49541;57.840;12.306;2023-01-27T04:36:32;102159.09;;;-3.04;69.37
63405;BME280;49541;57.840;12.306;2023-01-27T04:41:32;102179.94;;;-3.01;70.06
63405;BME280;49541;57.840;12.306;2023-01-27T04:46:33;102190.41;;;-3.09;69.41
63405;BME280;49541;57.840;12.306;2023-01-27T04:51:33;102180.94;;;-3.32;71.29
63405;BME280;49541;57.840;12.306;2023-01-27T04:56:37;102180.13;;;-3.43;71.77
63405;BME280;49541;57.840;12.306;2023-01-27T05:01:38;102185.94;;;-2.85;70.27
63405;BME280;49541;57.840;12.306;2023-01-27T05:06:38;102187.00;;;-3.23;69.83
63405;BME280;49541;57.840;12.306;2023-01-27T05:11:38;102177.59;;;-3.61;72.05
63405;BME280;49541;57.840;12.306;2023-01-27T05:16:38;102171.50;;;-3.65;71.74
63405;BME280;49541;57.840;12.306;2023-01-27T05:21:38;102166.31;;;-3.63;71.99
63405;BME280;49541;57.840;12.306;2023-01-27T05:26:38;102174.97;;;-3.71;72.69
63405;BME280;49541;57.840;12.306;2023-01-27T05:31:39;102192.22;;;-3.20;70.67
63405;BME280;49541;57.840;12.306;2023-01-27T05:36:39;102191.53;;;-2.16;68.76
63405;BME280;49541;57.840;12.306;2023-01-27T05:41:40;102186.16;;;-3.36;70.66
63405;BME280;49541;57.840;12.306;2023-01-27T05:46:40;102181.88;;;-3.51;71.45
63405;BME280;49541;57.840;12.306;2023-01-27T05:51:41;102182.41;;;-2.77;69.38
63405;BME280;49541;57.840;12.306;2023-01-27T05:56:41;102187.91;;;-3.37;70.30
63405;BME280;49541;57.840;12.306;2023-01-27T06:01:41;102194.88;;;-3.46;71.15
63405;BME280;49541;57.840;12.306;2023-01-27T06:06:41;102193.16;;;-3.41;71.40
63405;BME280;49541;57.840;12.306;2023-01-27T06:11:42;102190.44;;;-3.14;69.70
63405;BME280;49541;57.840;12.306;2023-01-27T06:16:42;102188.91;;;-3.96;71.80
63405;BME280;49541;57.840;12.306;2023-01-27T06:21:43;102194.09;;;-3.65;72.62
63405;BME280;49541;57.840;12.306;2023-01-27T06:26:43;102204.34;;;-3.21;69.79
63405;BME280;49541;57.840;12.306;2023-01-27T06:31:43;102202.81;;;-3.91;71.75
63405;BME280;49541;57.840;12.306;2023-01-27T06:36:43;102208.81;;;-3.66;71.91
63405;BME280;49541;57.840;12.306;2023-01-27T06:41:43;102216.66;;;-3.80;71.10
63405;BME280;49541;57.840;12.306;2023-01-27T06:46:43;102207.97;;;-3.83;71.58
63405;BME280;49541;57.840;12.306;2023-01-27T06:51:44;102211.47;;;-3.92;72.11
63405;BME280;49541;57.840;12.306;2023-01-27T06:56:44;102218.16;;;-3.02;69.98
63405;BME280;49541;57.840;12.306;2023-01-27T07:01:44;102214.91;;;-3.65;72.21
63405;BME280;49541;57.840;12.306;2023-01-27T07:06:44;102216.66;;;-3.71;71.89
63405;BME280;49541;57.840;12.306;2023-01-27T07:11:44;102206.44;;;-2.27;69.40
63405;BME280;49541;57.840;12.306;2023-01-27T07:16:45;102212.88;;;-2.83;70.28
63405;BME280;49541;57.840;12.306;2023-01-27T07:21:45;102210.47;;;-3.33;71.62
63405;BME280;49541;57.840;12.306;2023-01-27T07:26:45;102212.75;;;-2.62;71.34
63405;BME280;49541;57.840;12.306;2023-01-27T07:31:46;102209.59;;;-3.22;72.37
63405;BME280;49541;57.840;12.306;2023-01-27T07:36:46;102207.13;;;-3.88;75.08
63405;BME280;49541;57.840;12.306;2023-01-27T07:41:47;102202.44;;;-2.83;73.77
63405;BME280;49541;57.840;12.306;2023-01-27T07:46:48;102207.09;;;-3.68;75.34
63405;BME280;49541;57.840;12.306;2023-01-27T07:51:48;102216.25;;;-2.69;72.93
63405;BME280;49541;57.840;12.306;2023-01-27T07:56:48;102214.75;;;-3.16;71.25
63405;BME280;49541;57.840;12.306;2023-01-27T08:01:48;102229.09;;;-2.32;70.80
63405;BME280;49541;57.840;12.306;2023-01-27T08:06:48;102237.19;;;-2.75;72.17
63405;BME280;49541;57.840;12.306;2023-01-27T08:11:48;102219.28;;;-3.94;76.35
63405;BME280;49541;57.840;12.306;2023-01-27T08:16:49;102230.50;;;-3.44;77.32
63405;BME280;49541;57.840;12.306;2023-01-27T08:21:49;102225.06;;;-2.85;74.73
63405;BME280;49541;57.840;12.306;2023-01-27T08:26:49;102222.84;;;-2.16;72.17
63405;BME280;49541;57.840;12.306;2023-01-27T08:31:49;102217.97;;;-2.62;72.31
63405;BME280;49541;57.840;12.306;2023-01-27T08:36:49;102213.88;;;-3.15;75.68
63405;BME280;49541;57.840;12.306;2023-01-27T08:41:50;102219.41;;;-2.18;73.89
63405;BME280;49541;57.840;12.306;2023-01-27T08:46:50;102223.88;;;-2.37;73.22
63405;BME280;49541;57.840;12.306;2023-01-27T08:51:50;102219.16;;;-1.87;73.55
63405;BME280;49541;57.840;12.306;2023-01-27T08:56:50;102217.09;;;-1.56;71.17
63405;BME280;49541;57.840;12.306;2023-01-27T09:01:50;102213.78;;;-1.72;72.64
63405;BME280;49541;57.840;12.306;2023-01-27T09:06:50;102222.72;;;-2.00;72.61
63405;BME280;49541;57.840;12.306;2023-01-27T09:11:53;102209.75;;;-2.08;74.89
63405;BME280;49541;57.840;12.306;2023-01-27T09:16:53;102217.88;;;-1.48;73.88
63405;BME280;49541;57.840;12.306;2023-01-27T09:21:53;102209.63;;;-1.91;73.76
63405;BME280;49541;57.840;12.306;2023-01-27T09:26:53;102217.09;;;-1.57;73.69
63405;BME280;49541;57.840;12.306;2023-01-27T09:31:53;102219.31;;;-2.04;75.84
63405;BME280;49541;57.840;12.306;2023-01-27T09:36:56;102213.56;;;-1.53;74.99
63405;BME280;49541;57.840;12.306;2023-01-27T09:52:36;102239.34;;;-1.18;75.05
63405;BME280;49541;57.840;12.306;2023-01-27T09:57:52;102228.84;;;-1.16;74.70
63405;BME280;49541;57.840;12.306;2023-01-27T10:13:10;102218.16;;;-0.98;75.63
63405;BME280;49541;57.840;12.306;2023-01-27T10:28:32;102216.09;;;-0.73;77.24
63405;BME280;49541;57.840;12.306;2023-01-27T10:49:21;102218.00;;;0.73;72.22
63405;BME280;49541;57.840;12.306;2023-01-27T10:54:43;102214.72;;;0.61;73.03
63405;BME280;49541;57.840;12.306;2023-01-27T10:59:49;102213.91;;;0.59;73.93
63405;BME280;49541;57.840;12.306;2023-01-27T11:04:53;102211.66;;;0.85;72.90
63405;BME280;49541;57.840;12.306;2023-01-27T11:09:58;102218.16;;;0.65;76.38
63405;BME280;49541;57.840;12.306;2023-01-27T11:15:00;102203.97;;;1.17;77.96
63405;BME280;49541;57.840;12.306;2023-01-27T11:30:53;102208.88;;;4.13;71.63
63405;BME280;49541;57.840;12.306;2023-01-27T11:35:54;102200.75;;;5.16;66.53
63405;BME280;49541;57.840;12.306;2023-01-27T11:40:54;102188.94;;;5.91;62.66
63405;BME280;49541;57.840;12.306;2023-01-27T11:45:56;102191.63;;;6.52;60.95
63405;BME280;49541;57.840;12.306;2023-01-27T11:50:59;102181.31;;;7.05;57.29
63405;BME280;49541;57.840;12.306;2023-01-27T11:56:04;102182.38;;;7.38;57.10
63405;BME280;49541;57.840;12.306;2023-01-27T12:01:31;102173.41;;;8.12;52.80
63405;BME280;49541;57.840;12.306;2023-01-27T12:06:45;102175.88;;;8.33;51.71
63405;BME280;49541;57.840;12.306;2023-01-27T12:11:47;102158.56;;;8.26;51.71
63405;BME280;49541;57.840;12.306;2023-01-27T12:16:48;102153.94;;;8.29;49.33
63405;BME280;49541;57.840;12.306;2023-01-27T12:21:50;102143.81;;;8.71;49.55
63405;BME280;49541;57.840;12.306;2023-01-27T12:26:51;102129.28;;;8.45;50.22
63405;BME280;49541;57.840;12.306;2023-01-27T12:31:53;102127.13;;;7.66;51.16
63405;BME280;49541;57.840;12.306;2023-01-27T12:36:54;102112.16;;;6.73;52.66
63405;BME280;49541;57.840;12.306;2023-01-27T12:41:55;102116.91;;;7.04;53.87
63405;BME280;49541;57.840;12.306;2023-01-27T12:52:03;102115.53;;;7.51;51.00
63405;BME280;49541;57.840;12.306;2023-01-27T12:57:04;102121.13;;;7.08;51.03
63405;BME280;49541;57.840;12.306;2023-01-27T13:02:22;102118.28;;;7.30;51.16
63405;BME280;49541;57.840;12.306;2023-01-27T13:07:24;102118.97;;;7.70;49.17
63405;BME280;49541;57.840;12.306;2023-01-27T13:12:27;102102.88;;;7.02;51.68
63405;BME280;49541;57.840;12.306;2023-01-27T13:22:29;102095.59;;;6.69;51.87
63405;BME280;49541;57.840;12.306;2023-01-27T13:27:37;102070.97;;;6.67;51.85
63405;BME280;49541;57.840;12.306;2023-01-27T13:32:37;102074.34;;;5.92;53.13
63405;BME280;49541;57.840;12.306;2023-01-27T13:37:41;102062.53;;;5.38;55.17
63405;BME280;49541;57.840;12.306;2023-01-27T13:42:54;102051.22;;;5.56;55.84
63405;BME280;49541;57.840;12.306;2023-01-27T13:47:59;102044.22;;;5.75;53.96
63405;BME280;49541;57.840;12.306;2023-01-27T13:53:00;102026.97;;;5.67;53.75
63405;BME280;49541;57.840;12.306;2023-01-27T13:58:06;102025.69;;;5.34;53.44
63405;BME280;49541;57.840;12.306;2023-01-27T14:03:27;102023.28;;;5.08;55.41
63405;BME280;49541;57.840;12.306;2023-01-27T14:08:45;102033.31;;;5.00;54.64
63405;BME280;49541;57.840;12.306;2023-01-27T14:14:04;102040.22;;;5.24;54.92
63405;BME280;49541;57.840;12.306;2023-01-27T14:19:17;102032.13;;;5.07;54.93
63405;BME280;49541;57.840;12.306;2023-01-27T14:29:37;102026.81;;;5.29;56.63
63405;BME280;49541;57.840;12.306;2023-01-27T14:45:02;102018.41;;;5.62;58.61
63405;BME280;49541;57.840;12.306;2023-01-27T14:50:12;102025.25;;;6.45;55.74
63405;BME280;49541;57.840;12.306;2023-01-27T15:00:25;102033.75;;;6.13;56.30
63405;BME280;49541;57.840;12.306;2023-01-27T15:05:38;102026.81;;;6.30;54.39
63405;BME280;49541;57.840;12.306;2023-01-27T15:26:27;102022.28;;;4.66;58.79
63405;BME280;49541;57.840;12.306;2023-01-27T15:31:29;102022.72;;;4.32;59.53
63405;BME280;49541;57.840;12.306;2023-01-27T15:41:30;102016.25;;;4.17;59.58
63405;BME280;49541;57.840;12.306;2023-01-27T15:46:32;102022.22;;;3.74;60.45
63405;BME280;49541;57.840;12.306;2023-01-27T15:51:34;102015.25;;;3.47;61.30
63405;BME280;49541;57.840;12.306;2023-01-27T15:56:43;102017.13;;;3.44;61.12
63405;BME280;49541;57.840;12.306;2023-01-27T16:01:46;102019.72;;;3.71;59.92
63405;BME280;49541;57.840;12.306;2023-01-27T16:06:48;102002.31;;;3.15;61.30
63405;BME280;49541;57.840;12.306;2023-01-27T16:12:01;102001.56;;;2.84;62.47
63405;BME280;49541;57.840;12.306;2023-01-27T16:17:07;102007.69;;;2.83;63.73
63405;BME280;49541;57.840;12.306;2023-01-27T16:22:12;102004.72;;;2.67;63.64
63405;BME280;49541;57.840;12.306;2023-01-27T16:27:17;102003.75;;;2.42;65.10
63405;BME280;49541;57.840;12.306;2023-01-27T16:32:21;101995.78;;;2.73;64.75
63405;BME280;49541;57.840;12.306;2023-01-27T16:47:55;101984.00;;;1.97;67.88
63405;BME280;49541;57.840;12.306;2023-01-27T16:52:57;101978.91;;;1.93;68.40
63405;BME280;49541;57.840;12.306;2023-01-27T16:57:57;101977.16;;;2.51;66.80
63405;BME280;49541;57.840;12.306;2023-01-27T17:02:59;101971.16;;;1.88;69.08
63405;BME280;49541;57.840;12.306;2023-01-27T17:13:01;101964.91;;;0.94;73.64
63405;BME280;49541;57.840;12.306;2023-01-27T17:18:03;101964.09;;;0.90;73.48
63405;BME280;49541;57.840;12.306;2023-01-27T17:23:08;101958.41;;;0.35;74.39
63405;BME280;49541;57.840;12.306;2023-01-27T17:28:20;101965.03;;;0.52;75.45
63405;BME280;49541;57.840;12.306;2023-01-27T17:33:24;101958.38;;;0.74;74.92
63405;BME280;49541;57.840;12.306;2023-01-27T17:38:35;101946.25;;;0.70;73.65
63405;BME280;49541;57.840;12.306;2023-01-27T17:43:38;101953.16;;;0.35;75.71
63405;BME280;49541;57.840;12.306;2023-01-27T17:48:58;101944.56;;;0.30;77.05
63405;BME280;49541;57.840;12.306;2023-01-27T17:53:58;101942.00;;;0.27;76.32
63405;BME280;49541;57.840;12.306;2023-01-27T17:59:02;101941.84;;;0.33;77.17
63405;BME280;49541;57.840;12.306;2023-01-27T18:04:04;101938.63;;;0.59;76.05
63405;BME280;49541;57.840;12.306;2023-01-27T18:09:15;101938.97;;;0.07;76.41
63405;BME280;49541;57.840;12.306;2023-01-27T18:14:16;101939.13;;;-0.03;76.56
63405;BME280;49541;57.840;12.306;2023-01-27T18:19:18;101933.34;;;-0.17;76.79
63405;BME280;49541;57.840;12.306;2023-01-27T18:24:20;101940.78;;;0.02;77.39
63405;BME280;49541;57.840;12.306;2023-01-27T18:34:29;101942.81;;;0.29;75.62
63405;BME280;49541;57.840;12.306;2023-01-27T18:39:39;101933.56;;;-0.28;77.80
63405;BME280;49541;57.840;12.306;2023-01-27T18:44:40;101930.91;;;-0.26;77.66
63405;BME280;49541;57.840;12.306;2023-01-27T18:49:40;101925.66;;;-0.26;78.95
63405;BME280;49541;57.840;12.306;2023-01-27T18:54:40;101925.81;;;0.08;77.74
63405;BME280;49541;57.840;12.306;2023-01-27T18:59:40;101921.94;;;-0.14;77.76
63405;BME280;49541;57.840;12.306;2023-01-27T19:04:40;101923.00;;;-0.23;78.17
63405;BME280;49541;57.840;12.306;2023-01-27T19:09:41;101932.22;;;-0.07;79.57
63405;BME280;49541;57.840;12.306;2023-01-27T19:14:42;101923.13;;;-0.29;80.10
63405;BME280;49541;57.840;12.306;2023-01-27T19:19:45;101918.13;;;0.01;78.11
63405;BME280;49541;57.840;12.306;2023-01-27T19:24:45;101913.06;;;-0.09;78.01
63405;BME280;49541;57.840;12.306;2023-01-27T19:29:46;101920.50;;;-0.29;78.63
63405;BME280;49541;57.840;12.306;2023-01-27T19:34:47;101905.53;;;-0.66;80.13
63405;BME280;49541;57.840;12.306;2023-01-27T19:39:47;101914.28;;;-0.24;80.23
63405;BME280;49541;57.840;12.306;2023-01-27T19:44:48;101909.22;;;0.09;79.16
63405;BME280;49541;57.840;12.306;2023-01-27T19:49:48;101902.44;;;-0.01;79.81
63405;BME280;49541;57.840;12.306;2023-01-27T19:54:48;101905.66;;;-0.29;80.17
63405;BME280;49541;57.840;12.306;2023-01-27T19:59:48;101900.59;;;-0.36;80.66
63405;BME280;49541;57.840;12.306;2023-01-27T20:04:48;101903.41;;;-0.05;79.67
63405;BME280;49541;57.840;12.306;2023-01-27T20:09:48;101883.31;;;-0.05;79.82
63405;BME280;49541;57.840;12.306;2023-01-27T20:14:49;101871.25;;;-0.12;80.50
63405;BME280;49541;57.840;12.306;2023-01-27T20:19:49;101872.19;;;-0.14;80.16
63405;BME280;49541;57.840;12.306;2023-01-27T20:24:49;101855.47;;;-0.09;80.24
63405;BME280;49541;57.840;12.306;2023-01-27T20:29:49;101861.00;;;0.18;79.78
63405;BME280;49541;57.840;12.306;2023-01-27T20:34:49;101865.59;;;0.44;78.01
63405;BME280;49541;57.840;12.306;2023-01-27T20:39:49;101865.53;;;0.10;79.46
63405;BME280;49541;57.840;12.306;2023-01-27T20:44:51;101867.09;;;0.17;79.47
63405;BME280;49541;57.840;12.306;2023-01-27T20:49:53;101865.28;;;-0.18;80.29
63405;BME280;49541;57.840;12.306;2023-01-27T20:54:53;101861.13;;;-0.27;81.60
63405;BME280;49541;57.840;12.306;2023-01-27T20:59:53;101853.13;;;-0.21;81.69
63405;BME280;49541;57.840;12.306;2023-01-27T21:04:53;101831.72;;;0.01;81.06
63405;BME280;49541;57.840;12.306;2023-01-27T21:09:54;101831.28;;;-0.20;82.48
63405;BME280;49541;57.840;12.306;2023-01-27T21:14:55;101833.53;;;-0.03;82.19
63405;BME280;49541;57.840;12.306;2023-01-27T21:19:55;101834.50;;;-0.09;82.67
63405;BME280;49541;57.840;12.306;2023-01-27T21:24:55;101817.06;;;-0.08;82.28
63405;BME280;49541;57.840;12.306;2023-01-27T21:29:55;101818.56;;;0.38;80.86
63405;BME280;49541;57.840;12.306;2023-01-27T21:34:56;101799.63;;;0.63;80.37
63405;BME280;49541;57.840;12.306;2023-01-27T21:39:58;101791.03;;;0.56;79.94
63405;BME280;49541;57.840;12.306;2023-01-27T21:44:58;101793.47;;;0.29;81.54
63405;BME280;49541;57.840;12.306;2023-01-27T21:50:11;101792.47;;;0.69;80.67
63405;BME280;49541;57.840;12.306;2023-01-27T21:55:14;101796.75;;;0.37;81.48
63405;BME280;49541;57.840;12.306;2023-01-27T22:00:16;101793.22;;;0.38;82.67
63405;BME280;49541;57.840;12.306;2023-01-27T22:05:17;101770.97;;;0.20;83.49
63405;BME280;49541;57.840;12.306;2023-01-27T22:10:18;101762.38;;;0.15;83.50
63405;BME280;49541;57.840;12.306;2023-01-27T22:15:18;101761.56;;;0.48;82.88
63405;BME280;49541;57.840;12.306;2023-01-27T22:20:19;101755.38;;;0.50;83.73
63405;BME280;49541;57.840;12.306;2023-01-27T22:25:19;101751.25;;;0.40;84.38
63405;BME280;49541;57.840;12.306;2023-01-27T22:30:19;101751.13;;;0.45;84.89
63405;BME280;49541;57.840;12.306;2023-01-27T22:35:20;101740.59;;;0.48;84.98
63405;BME280;49541;57.840;12.306;2023-01-27T22:40:20;101751.00;;;0.49;84.01
63405;BME280;49541;57.840;12.306;2023-01-27T22:45:20;101740.75;;;0.42;85.41
63405;BME280;49541;57.840;12.306;2023-01-27T22:50:20;101733.03;;;0.68;83.97
63405;BME280;49541;57.840;12.306;2023-01-27T22:55:21;101723.44;;;0.34;84.63
63405;BME280;49541;57.840;12.306;2023-01-27T23:00:21;101725.00;;;0.43;84.91
63405;BME280;49541;57.840;12.306;2023-01-27T23:05:21;101718.16;;;0.37;85.53
63405;BME280;49541;57.840;12.306;2023-01-27T23:10:21;101706.56;;;0.46;85.84
63405;BME280;49541;57.840;12.306;2023-01-27T23:15:22;101707.81;;;0.31;86.28
63405;BME280;49541;57.840;12.306;2023-01-27T23:20:22;101697.25;;;0.34;86.94
63405;BME280;49541;57.840;12.306;2023-01-27T23:25:23;101686.84;;;0.64;86.23
63405;BME280;49541;57.840;12.306;2023-01-27T23:30:23;101685.88;;;0.67;85.36
63405;BME280;49541;57.840;12.306;2023-01-27T23:35:23;101682.88;;;0.80;85.28
63405;BME280;49541;57.840;12.306;2023-01-27T23:40:23;101689.66;;;0.88;84.69
63405;BME280;49541;57.840;12.306;2023-01-27T23:45:23;101689.16;;;1.06;83.85
63405;BME280;49541;57.840;12.306;2023-01-27T23:50:24;101683.22;;;0.68;85.34
63405;BME280;49541;57.840;12.306;2023-01-27T23:55:24;101676.72;;;0.81;85.85
